sensor_id;sensor_type;location;lat;lon;timestamp;pressure;altitude;pressure_sealevel;temperature;humidity
27705;BME280;15109;50.992;6.918;2022-08-19T00:02:00;100670.75;;;19.71;100.00
27705;BME280;15109;50.992;6.918;2022-08-19T00:05:21;100671.84;;;19.70;100.00
27705;BME280;15109;50.992;6.918;2022-08-19T00:08:43;100674.00;;;19.68;100.00
27705;BME280;15109;50.992;6.918;2022-08-19T00:12:05;100674.25;;;19.66;100.00
27705;BME280;15109;50.992;6.918;2022-08-19T00:15:26;100682.47;;;19.61;100.00
27705;BME280;15109;50.992;6.918;2022-08-19T00:18:48;100683.38;;;19.50;100.00
27705;BME280;15109;50.992;6.918;2022-08-19T00:22:09;100675.78;;;19.45;100.00
27705;BME280;15109;50.992;6.918;2022-08-19T00:25:30;100672.19;;;19.45;100.00
27705;BME280;15109;50.992;6.918;2022-08-19T00:28:51;100678.16;;;19.42;100.00
27705;BME280;15109;50.992;6.918;2022-08-19T00:32:12;100683.97;;;19.40;100.00
27705;BME280;15109;50.992;6.918;2022-08-19T00:35:33;100687.47;;;19.36;100.00
27705;BME280;15109;50.992;6.918;2022-08-19T00:38:55;100674.69;;;19.35;100.00
27705;BME280;15109;50.992;6.918;2022-08-19T00:42:17;100681.81;;;19.31;100.00
27705;BME280;15109;50.992;6.918;2022-08-19T00:45:40;100671.81;;;19.30;100.00
27705;BME280;15109;50.992;6.918;2022-08-19T00:49:08;100672.16;;;19.33;100.00
27705;BME280;15109;50.992;6.918;2022-08-19T00:52:33;100669.88;;;19.30;100.00
27705;BME280;15109;50.992;6.918;2022-08-19T00:55:58;100680.41;;;19.28;100.00
27705;BME280;15109;50.992;6.918;2022-08-19T00:59:20;100675.66;;;19.29;100.00
27705;BME280;15109;50.992;6.918;2022-08-19T01:02:42;100675.31;;;19.25;100.00
27705;BME280;15109;50.992;6.918;2022-08-19T01:06:04;100679.44;;;19.23;100.00
27705;BME280;15109;50.992;6.918;2022-08-19T01:09:26;100683.78;;;19.19;100.00
27705;BME280;15109;50.992;6.918;2022-08-19T01:12:47;100681.47;;;19.16;100.00
27705;BME280;15109;50.992;6.918;2022-08-19T01:16:11;100678.97;;;19.14;100.00
27705;BME280;15109;50.992;6.918;2022-08-19T01:19:39;100670.31;;;19.11;100.00
27705;BME280;15109;50.992;6.918;2022-08-19T01:23:01;100663.66;;;19.12;100.00
27705;BME280;15109;50.992;6.918;2022-08-19T01:26:24;100672.81;;;19.12;100.00
27705;BME280;15109;50.992;6.918;2022-08-19T01:29:46;100662.59;;;19.01;100.00
27705;BME280;15109;50.992;6.918;2022-08-19T01:33:07;100659.47;;;18.97;100.00
27705;BME280;15109;50.992;6.918;2022-08-19T01:36:38;100659.13;;;18.94;100.00
27705;BME280;15109;50.992;6.918;2022-08-19T01:40:00;100664.66;;;18.94;100.00
27705;BME280;15109;50.992;6.918;2022-08-19T01:43:21;100666.59;;;18.93;100.00
27705;BME280;15109;50.992;6.918;2022-08-19T01:46:43;100656.34;;;18.94;100.00
27705;BME280;15109;50.992;6.918;2022-08-19T01:50:06;100655.75;;;18.92;100.00
27705;BME280;15109;50.992;6.918;2022-08-19T01:53:28;100650.44;;;18.90;100.00
27705;BME280;15109;50.992;6.918;2022-08-19T01:56:51;100643.22;;;18.89;100.00
27705;BME280;15109;50.992;6.918;2022-08-19T02:00:17;100646.00;;;18.89;100.00
27705;BME280;15109;50.992;6.918;2022-08-19T02:03:38;100644.53;;;18.87;100.00
27705;BME280;15109;50.992;6.918;2022-08-19T02:07:00;100649.22;;;18.86;100.00
27705;BME280;15109;50.992;6.918;2022-08-19T02:10:22;100663.22;;;18.80;100.00
27705;BME280;15109;50.992;6.918;2022-08-19T02:13:43;100664.06;;;18.80;100.00
27705;BME280;15109;50.992;6.918;2022-08-19T02:17:04;100666.13;;;18.85;100.00
27705;BME280;15109;50.992;6.918;2022-08-19T02:20:25;100658.19;;;18.77;100.00
27705;BME280;15109;50.992;6.918;2022-08-19T02:23:47;100656.22;;;18.77;100.00
27705;BME280;15109;50.992;6.918;2022-08-19T02:27:08;100654.78;;;18.75;100.00
27705;BME280;15109;50.992;6.918;2022-08-19T02:30:29;100665.16;;;18.68;100.00
27705;BME280;15109;50.992;6.918;2022-08-19T02:33:51;100658.66;;;18.62;100.00
27705;BME280;15109;50.992;6.918;2022-08-19T02:37:13;100660.34;;;18.63;100.00
27705;BME280;15109;50.992;6.918;2022-08-19T02:40:59;100666.13;;;18.62;100.00
27705;BME280;15109;50.992;6.918;2022-08-19T02:44:20;100671.00;;;18.48;100.00
27705;BME280;15109;50.992;6.918;2022-08-19T02:47:42;100681.72;;;18.44;100.00
27705;BME280;15109;50.992;6.918;2022-08-19T02:51:03;100682.81;;;18.43;100.00
27705;BME280;15109;50.992;6.918;2022-08-19T02:54:26;100679.19;;;18.43;100.00
27705;BME280;15109;50.992;6.918;2022-08-19T02:57:47;100684.72;;;18.43;100.00
27705;BME280;15109;50.992;6.918;2022-08-19T03:01:09;100686.91;;;18.41;100.00
27705;BME280;15109;50.992;6.918;2022-08-19T03:04:31;100681.09;;;18.42;100.00
27705;BME280;15109;50.992;6.918;2022-08-19T03:07:52;100673.91;;;18.41;100.00
27705;BME280;15109;50.992;6.918;2022-08-19T03:11:23;100678.13;;;18.44;100.00
27705;BME280;15109;50.992;6.918;2022-08-19T03:14:45;100678.81;;;18.39;100.00
27705;BME280;15109;50.992;6.918;2022-08-19T03:18:07;100678.81;;;18.39;100.00
27705;BME280;15109;50.992;6.918;2022-08-19T03:21:31;100678.25;;;18.37;100.00
27705;BME280;15109;50.992;6.918;2022-08-19T03:24:52;100672.22;;;18.40;100.00
27705;BME280;15109;50.992;6.918;2022-08-19T03:28:14;100682.44;;;18.40;100.00
27705;BME280;15109;50.992;6.918;2022-08-19T03:31:36;100686.16;;;18.34;100.00
27705;BME280;15109;50.992;6.918;2022-08-19T03:34:57;100698.34;;;18.33;100.00
27705;BME280;15109;50.992;6.918;2022-08-19T03:38:18;100695.06;;;18.36;100.00
27705;BME280;15109;50.992;6.918;2022-08-19T03:41:42;100696.16;;;18.35;100.00
27705;BME280;15109;50.992;6.918;2022-08-19T03:45:04;100696.00;;;18.30;100.00
27705;BME280;15109;50.992;6.918;2022-08-19T03:48:25;100693.16;;;18.25;100.00
27705;BME280;15109;50.992;6.918;2022-08-19T03:51:48;100699.38;;;18.20;100.00
27705;BME280;15109;50.992;6.918;2022-08-19T03:55:09;100703.00;;;18.21;100.00
27705;BME280;15109;50.992;6.918;2022-08-19T03:58:30;100703.38;;;18.24;100.00
27705;BME280;15109;50.992;6.918;2022-08-19T04:01:56;100697.84;;;18.24;100.00
27705;BME280;15109;50.992;6.918;2022-08-19T04:05:17;100706.16;;;18.36;100.00
27705;BME280;15109;50.992;6.918;2022-08-19T04:08:43;100703.03;;;18.44;100.00
27705;BME280;15109;50.992;6.918;2022-08-19T04:12:05;100699.53;;;18.48;100.00
27705;BME280;15109;50.992;6.918;2022-08-19T04:15:26;100698.22;;;18.51;100.00
27705;BME280;15109;50.992;6.918;2022-08-19T04:18:49;100705.13;;;18.60;100.00
27705;BME280;15109;50.992;6.918;2022-08-19T04:22:10;100709.00;;;18.59;100.00
27705;BME280;15109;50.992;6.918;2022-08-19T04:25:39;100709.34;;;18.63;100.00
27705;BME280;15109;50.992;6.918;2022-08-19T04:29:04;100703.06;;;18.55;100.00
27705;BME280;15109;50.992;6.918;2022-08-19T04:32:25;100695.69;;;18.49;100.00
27705;BME280;15109;50.992;6.918;2022-08-19T04:35:48;100707.38;;;18.51;100.00
27705;BME280;15109;50.992;6.918;2022-08-19T04:39:18;100718.44;;;18.51;100.00
27705;BME280;15109;50.992;6.918;2022-08-19T04:42:40;100713.06;;;18.56;100.00
27705;BME280;15109;50.992;6.918;2022-08-19T04:46:09;100710.56;;;18.55;100.00
27705;BME280;15109;50.992;6.918;2022-08-19T04:49:31;100727.75;;;18.57;100.00
27705;BME280;15109;50.992;6.918;2022-08-19T04:52:52;100727.75;;;18.57;100.00
27705;BME280;15109;50.992;6.918;2022-08-19T04:56:15;100735.34;;;18.62;100.00
27705;BME280;15109;50.992;6.918;2022-08-19T04:59:39;100739.34;;;18.66;100.00
27705;BME280;15109;50.992;6.918;2022-08-19T05:03:00;100744.38;;;18.69;100.00
27705;BME280;15109;50.992;6.918;2022-08-19T05:06:22;100742.59;;;18.74;100.00
27705;BME280;15109;50.992;6.918;2022-08-19T05:09:44;100751.75;;;18.75;100.00
27705;BME280;15109;50.992;6.918;2022-08-19T05:13:05;100751.13;;;18.73;100.00
27705;BME280;15109;50.992;6.918;2022-08-19T05:16:27;100753.09;;;18.72;100.00
27705;BME280;15109;50.992;6.918;2022-08-19T05:19:48;100759.13;;;18.81;100.00
27705;BME280;15109;50.992;6.918;2022-08-19T05:23:27;100765.88;;;18.96;100.00
27705;BME280;15109;50.992;6.918;2022-08-19T05:26:50;100771.75;;;19.00;100.00
27705;BME280;15109;50.992;6.918;2022-08-19T05:30:12;100769.97;;;19.06;100.00
27705;BME280;15109;50.992;6.918;2022-08-19T05:33:33;100764.78;;;19.09;100.00
27705;BME280;15109;50.992;6.918;2022-08-19T05:36:57;100764.91;;;19.14;100.00
27705;BME280;15109;50.992;6.918;2022-08-19T05:40:18;100764.91;;;19.14;100.00
27705;BME280;15109;50.992;6.918;2022-08-19T05:43:39;100768.72;;;19.25;100.00
27705;BME280;15109;50.992;6.918;2022-08-19T05:47:02;100772.47;;;19.30;100.00
27705;BME280;15109;50.992;6.918;2022-08-19T05:50:24;100775.59;;;19.34;100.00
27705;BME280;15109;50.992;6.918;2022-08-19T05:53:47;100770.41;;;19.37;100.00
27705;BME280;15109;50.992;6.918;2022-08-19T05:57:09;100775.13;;;19.37;100.00
27705;BME280;15109;50.992;6.918;2022-08-19T06:00:30;100767.75;;;19.42;100.00
27705;BME280;15109;50.992;6.918;2022-08-19T06:03:52;100774.19;;;19.43;100.00
27705;BME280;15109;50.992;6.918;2022-08-19T06:07:13;100770.66;;;19.47;100.00
27705;BME280;15109;50.992;6.918;2022-08-19T06:10:34;100775.72;;;19.51;100.00
27705;BME280;15109;50.992;6.918;2022-08-19T06:13:56;100772.47;;;19.54;100.00
27705;BME280;15109;50.992;6.918;2022-08-19T06:17:18;100753.06;;;19.54;100.00
27705;BME280;15109;50.992;6.918;2022-08-19T06:20:40;100753.53;;;19.62;100.00
27705;BME280;15109;50.992;6.918;2022-08-19T06:24:01;100763.44;;;19.58;100.00
27705;BME280;15109;50.992;6.918;2022-08-19T06:27:23;100758.47;;;19.60;100.00
27705;BME280;15109;50.992;6.918;2022-08-19T06:30:44;100766.66;;;19.67;100.00
27705;BME280;15109;50.992;6.918;2022-08-19T06:34:05;100761.31;;;19.77;100.00
27705;BME280;15109;50.992;6.918;2022-08-19T06:37:26;100759.66;;;19.76;100.00
27705;BME280;15109;50.992;6.918;2022-08-19T06:40:47;100760.00;;;19.79;100.00
27705;BME280;15109;50.992;6.918;2022-08-19T06:44:09;100750.81;;;19.79;100.00
27705;BME280;15109;50.992;6.918;2022-08-19T06:47:31;100761.66;;;19.80;100.00
27705;BME280;15109;50.992;6.918;2022-08-19T06:50:55;100759.84;;;19.86;100.00
27705;BME280;15109;50.992;6.918;2022-08-19T06:54:18;100759.09;;;19.90;100.00
27705;BME280;15109;50.992;6.918;2022-08-19T06:57:39;100765.09;;;19.99;100.00
27705;BME280;15109;50.992;6.918;2022-08-19T07:01:04;100772.88;;;20.14;100.00
27705;BME280;15109;50.992;6.918;2022-08-19T07:04:30;100772.25;;;20.23;100.00
27705;BME280;15109;50.992;6.918;2022-08-19T07:07:53;100776.81;;;20.29;100.00
27705;BME280;15109;50.992;6.918;2022-08-19T07:11:16;100778.84;;;20.34;100.00
27705;BME280;15109;50.992;6.918;2022-08-19T07:14:39;100787.19;;;20.34;100.00
27705;BME280;15109;50.992;6.918;2022-08-19T07:18:03;100786.34;;;20.33;100.00
27705;BME280;15109;50.992;6.918;2022-08-19T07:21:27;100795.75;;;20.32;100.00
27705;BME280;15109;50.992;6.918;2022-08-19T07:24:48;100800.59;;;20.25;100.00
27705;BME280;15109;50.992;6.918;2022-08-19T07:28:10;100803.00;;;20.33;100.00
27705;BME280;15109;50.992;6.918;2022-08-19T07:31:31;100812.19;;;20.34;100.00
27705;BME280;15109;50.992;6.918;2022-08-19T07:34:57;100810.00;;;20.36;100.00
27705;BME280;15109;50.992;6.918;2022-08-19T07:38:18;100811.66;;;20.37;100.00
27705;BME280;15109;50.992;6.918;2022-08-19T07:41:39;100813.97;;;20.40;100.00
27705;BME280;15109;50.992;6.918;2022-08-19T07:45:04;100821.19;;;20.41;100.00
27705;BME280;15109;50.992;6.918;2022-08-19T07:48:27;100828.44;;;20.42;100.00
27705;BME280;15109;50.992;6.918;2022-08-19T07:51:54;100820.09;;;20.42;100.00
27705;BME280;15109;50.992;6.918;2022-08-19T07:55:19;100822.00;;;20.53;100.00
27705;BME280;15109;50.992;6.918;2022-08-19T07:58:43;100830.56;;;20.52;100.00
27705;BME280;15109;50.992;6.918;2022-08-19T08:02:05;100843.63;;;20.51;100.00
27705;BME280;15109;50.992;6.918;2022-08-19T08:05:26;100835.28;;;20.51;100.00
27705;BME280;15109;50.992;6.918;2022-08-19T08:09:06;100842.63;;;20.57;100.00
27705;BME280;15109;50.992;6.918;2022-08-19T08:12:41;100844.41;;;20.63;100.00
27705;BME280;15109;50.992;6.918;2022-08-19T08:16:02;100839.78;;;20.69;100.00
27705;BME280;15109;50.992;6.918;2022-08-19T08:19:25;100840.22;;;20.77;100.00
27705;BME280;15109;50.992;6.918;2022-08-19T08:22:47;100840.41;;;20.88;100.00
27705;BME280;15109;50.992;6.918;2022-08-19T08:26:30;100845.63;;;21.01;100.00
27705;BME280;15109;50.992;6.918;2022-08-19T08:29:51;100841.81;;;21.07;100.00
27705;BME280;15109;50.992;6.918;2022-08-19T08:33:17;100840.94;;;21.18;100.00
27705;BME280;15109;50.992;6.918;2022-08-19T08:36:41;100835.38;;;21.35;100.00
27705;BME280;15109;50.992;6.918;2022-08-19T08:40:15;100838.13;;;21.51;100.00
27705;BME280;15109;50.992;6.918;2022-08-19T08:43:38;100832.91;;;21.77;100.00
27705;BME280;15109;50.992;6.918;2022-08-19T08:47:11;100838.63;;;21.87;100.00
27705;BME280;15109;50.992;6.918;2022-08-19T08:50:39;100843.56;;;22.01;100.00
27705;BME280;15109;50.992;6.918;2022-08-19T08:54:06;100840.00;;;22.06;100.00
27705;BME280;15109;50.992;6.918;2022-08-19T08:57:36;100836.72;;;22.09;100.00
27705;BME280;15109;50.992;6.918;2022-08-19T09:00:59;100840.00;;;22.28;100.00
27705;BME280;15109;50.992;6.918;2022-08-19T09:04:20;100834.47;;;22.33;100.00
27705;BME280;15109;50.992;6.918;2022-08-19T09:11:19;100842.84;;;22.33;100.00
27705;BME280;15109;50.992;6.918;2022-08-19T09:14:52;100847.63;;;22.37;100.00
27705;BME280;15109;50.992;6.918;2022-08-19T09:18:15;100844.25;;;22.35;100.00
27705;BME280;15109;50.992;6.918;2022-08-19T09:21:37;100845.03;;;22.31;100.00
27705;BME280;15109;50.992;6.918;2022-08-19T09:24:59;100837.81;;;22.30;100.00
27705;BME280;15109;50.992;6.918;2022-08-19T09:28:20;100840.06;;;22.33;100.00
27705;BME280;15109;50.992;6.918;2022-08-19T09:31:42;100837.81;;;22.30;100.00
27705;BME280;15109;50.992;6.918;2022-08-19T09:35:03;100841.75;;;22.34;100.00
27705;BME280;15109;50.992;6.918;2022-08-19T09:38:24;100837.03;;;22.34;100.00
27705;BME280;15109;50.992;6.918;2022-08-19T09:41:45;100845.53;;;22.49;100.00
27705;BME280;15109;50.992;6.918;2022-08-19T09:45:06;100847.28;;;22.55;100.00
27705;BME280;15109;50.992;6.918;2022-08-19T09:48:28;100849.00;;;22.61;100.00
27705;BME280;15109;50.992;6.918;2022-08-19T09:51:51;100843.13;;;22.58;100.00
27705;BME280;15109;50.992;6.918;2022-08-19T09:55:12;100844.56;;;22.60;100.00
27705;BME280;15109;50.992;6.918;2022-08-19T09:58:34;100834.09;;;22.73;100.00
27705;BME280;15109;50.992;6.918;2022-08-19T10:01:58;100846.56;;;22.65;100.00
27705;BME280;15109;50.992;6.918;2022-08-19T10:05:19;100837.66;;;22.68;100.00
27705;BME280;15109;50.992;6.918;2022-08-19T10:08:59;100844.41;;;22.72;100.00
27705;BME280;15109;50.992;6.918;2022-08-19T10:12:20;100831.44;;;22.88;100.00
27705;BME280;15109;50.992;6.918;2022-08-19T10:15:43;100824.81;;;22.94;100.00
27705;BME280;15109;50.992;6.918;2022-08-19T10:19:04;100816.91;;;23.18;100.00
27705;BME280;15109;50.992;6.918;2022-08-19T10:22:25;100817.53;;;23.25;100.00
27705;BME280;15109;50.992;6.918;2022-08-19T10:25:48;100815.69;;;23.40;100.00
27705;BME280;15109;50.992;6.918;2022-08-19T10:29:09;100823.38;;;23.60;100.00
27705;BME280;15109;50.992;6.918;2022-08-19T10:32:30;100822.84;;;23.63;100.00
27705;BME280;15109;50.992;6.918;2022-08-19T10:36:00;100838.53;;;23.74;100.00
27705;BME280;15109;50.992;6.918;2022-08-19T10:39:21;100824.03;;;23.77;100.00
27705;BME280;15109;50.992;6.918;2022-08-19T10:42:42;100825.72;;;23.78;100.00
27705;BME280;15109;50.992;6.918;2022-08-19T10:46:09;100829.09;;;23.80;100.00
27705;BME280;15109;50.992;6.918;2022-08-19T10:49:31;100829.34;;;23.79;100.00
27705;BME280;15109;50.992;6.918;2022-08-19T10:52:53;100822.94;;;23.83;100.00
27705;BME280;15109;50.992;6.918;2022-08-19T10:56:14;100817.31;;;23.78;100.00
27705;BME280;15109;50.992;6.918;2022-08-19T10:59:53;100825.72;;;23.78;100.00
27705;BME280;15109;50.992;6.918;2022-08-19T11:03:14;100808.44;;;23.81;100.00
27705;BME280;15109;50.992;6.918;2022-08-19T11:06:36;100814.38;;;24.05;100.00
27705;BME280;15109;50.992;6.918;2022-08-19T11:09:58;100810.78;;;24.10;100.00
27705;BME280;15109;50.992;6.918;2022-08-19T11:13:19;100808.81;;;24.10;100.00
27705;BME280;15109;50.992;6.918;2022-08-19T11:16:41;100807.41;;;24.08;100.00
27705;BME280;15109;50.992;6.918;2022-08-19T11:20:03;100810.72;;;24.00;100.00
27705;BME280;15109;50.992;6.918;2022-08-19T11:23:26;100808.22;;;23.98;100.00
27705;BME280;15109;50.992;6.918;2022-08-19T11:26:48;100803.28;;;24.15;100.00
27705;BME280;15109;50.992;6.918;2022-08-19T11:30:12;100810.84;;;24.25;100.00
27705;BME280;15109;50.992;6.918;2022-08-19T11:33:34;100803.28;;;24.25;100.00
27705;BME280;15109;50.992;6.918;2022-08-19T11:36:56;100803.91;;;24.32;100.00
27705;BME280;15109;50.992;6.918;2022-08-19T11:40:21;100807.00;;;24.46;100.00
27705;BME280;15109;50.992;6.918;2022-08-19T11:43:42;100798.06;;;24.49;100.00
27705;BME280;15109;50.992;6.918;2022-08-19T11:47:09;100805.03;;;24.42;100.00
27705;BME280;15109;50.992;6.918;2022-08-19T11:50:30;100792.72;;;24.32;100.00
27705;BME280;15109;50.992;6.918;2022-08-19T11:53:53;100787.38;;;24.31;100.00
27705;BME280;15109;50.992;6.918;2022-08-19T11:57:14;100790.19;;;24.31;100.00
27705;BME280;15109;50.992;6.918;2022-08-19T12:00:39;100790.75;;;24.33;100.00
27705;BME280;15109;50.992;6.918;2022-08-19T12:04:00;100789.94;;;24.37;100.00
27705;BME280;15109;50.992;6.918;2022-08-19T12:07:21;100793.53;;;24.28;100.00
27705;BME280;15109;50.992;6.918;2022-08-19T12:10:43;100781.78;;;24.26;100.00
27705;BME280;15109;50.992;6.918;2022-08-19T12:14:09;100792.41;;;24.34;100.00
27705;BME280;15109;50.992;6.918;2022-08-19T12:17:30;100786.31;;;24.37;100.00
27705;BME280;15109;50.992;6.918;2022-08-19T12:20:53;100782.97;;;24.45;100.00
27705;BME280;15109;50.992;6.918;2022-08-19T12:24:15;100774.59;;;24.70;100.00
27705;BME280;15109;50.992;6.918;2022-08-19T12:27:36;100780.22;;;24.91;100.00
27705;BME280;15109;50.992;6.918;2022-08-19T12:30:58;100778.28;;;25.06;100.00
27705;BME280;15109;50.992;6.918;2022-08-19T12:34:19;100765.94;;;25.17;100.00
27705;BME280;15109;50.992;6.918;2022-08-19T12:37:40;100773.16;;;25.28;100.00
27705;BME280;15109;50.992;6.918;2022-08-19T12:41:06;100760.31;;;25.27;100.00
27705;BME280;15109;50.992;6.918;2022-08-19T12:44:27;100762.56;;;25.20;100.00
27705;BME280;15109;50.992;6.918;2022-08-19T12:47:49;100760.59;;;25.16;100.00
27705;BME280;15109;50.992;6.918;2022-08-19T12:51:16;100760.91;;;25.19;100.00
27705;BME280;15109;50.992;6.918;2022-08-19T12:54:40;100756.69;;;25.27;100.00
27705;BME280;15109;50.992;6.918;2022-08-19T12:58:01;100755.00;;;25.26;100.00
27705;BME280;15109;50.992;6.918;2022-08-19T13:01:22;100755.53;;;25.33;100.00
27705;BME280;15109;50.992;6.918;2022-08-19T13:04:43;100758.31;;;25.33;100.00
27705;BME280;15109;50.992;6.918;2022-08-19T13:08:04;100753.03;;;25.26;100.00
27705;BME280;15109;50.992;6.918;2022-08-19T13:11:25;100744.63;;;25.32;100.00
27705;BME280;15109;50.992;6.918;2022-08-19T13:14:46;100738.47;;;25.35;100.00
27705;BME280;15109;50.992;6.918;2022-08-19T13:18:12;100724.72;;;25.43;100.00
27705;BME280;15109;50.992;6.918;2022-08-19T13:21:34;100736.19;;;25.57;100.00
27705;BME280;15109;50.992;6.918;2022-08-19T13:24:55;100734.22;;;25.62;99.68
27705;BME280;15109;50.992;6.918;2022-08-19T13:28:16;100724.66;;;25.68;97.39
27705;BME280;15109;50.992;6.918;2022-08-19T13:31:40;100722.69;;;25.69;94.95
27705;BME280;15109;50.992;6.918;2022-08-19T13:35:20;100730.00;;;25.60;94.47
27705;BME280;15109;50.992;6.918;2022-08-19T13:38:41;100720.22;;;25.57;95.53
27705;BME280;15109;50.992;6.918;2022-08-19T13:42:03;100721.31;;;25.51;93.63
27705;BME280;15109;50.992;6.918;2022-08-19T13:45:27;100715.72;;;25.51;95.26
27705;BME280;15109;50.992;6.918;2022-08-19T13:48:48;100721.63;;;25.55;93.76
27705;BME280;15109;50.992;6.918;2022-08-19T13:52:09;100720.78;;;25.54;92.82
27705;BME280;15109;50.992;6.918;2022-08-19T13:55:30;100707.91;;;25.53;91.04
27705;BME280;15109;50.992;6.918;2022-08-19T13:58:52;100697.56;;;25.54;93.45
27705;BME280;15109;50.992;6.918;2022-08-19T14:02:14;100714.28;;;25.69;92.09
27705;BME280;15109;50.992;6.918;2022-08-19T14:05:35;100699.66;;;25.82;90.50
27705;BME280;15109;50.992;6.918;2022-08-19T14:08:56;100707.50;;;25.80;92.21
27705;BME280;15109;50.992;6.918;2022-08-19T14:12:19;100701.34;;;25.83;92.33
27705;BME280;15109;50.992;6.918;2022-08-19T14:15:41;100693.47;;;25.85;93.32
27705;BME280;15109;50.992;6.918;2022-08-19T14:19:02;100703.53;;;25.91;92.94
27705;BME280;15109;50.992;6.918;2022-08-19T14:22:23;100706.34;;;25.86;91.34
27705;BME280;15109;50.992;6.918;2022-08-19T14:25:44;100704.69;;;25.80;91.92
27705;BME280;15109;50.992;6.918;2022-08-19T14:29:07;100698.78;;;25.87;89.20
27705;BME280;15109;50.992;6.918;2022-08-19T14:32:28;100702.16;;;25.89;89.37
27705;BME280;15109;50.992;6.918;2022-08-19T14:35:49;100702.66;;;25.96;87.98
27705;BME280;15109;50.992;6.918;2022-08-19T14:39:10;100706.22;;;26.06;86.88
27705;BME280;15109;50.992;6.918;2022-08-19T14:42:31;100708.44;;;26.14;85.60
27705;BME280;15109;50.992;6.918;2022-08-19T14:45:52;100713.75;;;26.21;85.42
27705;BME280;15109;50.992;6.918;2022-08-19T14:49:13;100717.03;;;26.33;86.13
27705;BME280;15109;50.992;6.918;2022-08-19T14:52:34;100714.41;;;26.47;83.75
27705;BME280;15109;50.992;6.918;2022-08-19T14:55:55;100710.72;;;26.51;81.87
27705;BME280;15109;50.992;6.918;2022-08-19T14:59:17;100710.31;;;26.68;79.27
27705;BME280;15109;50.992;6.918;2022-08-19T15:02:38;100716.03;;;26.92;78.89
27705;BME280;15109;50.992;6.918;2022-08-19T15:06:01;100720.59;;;27.12;74.90
27705;BME280;15109;50.992;6.918;2022-08-19T15:09:22;100714.50;;;27.28;74.30
27705;BME280;15109;50.992;6.918;2022-08-19T15:12:44;100718.28;;;27.42;73.22
27705;BME280;15109;50.992;6.918;2022-08-19T15:16:07;100719.69;;;27.16;74.01
27705;BME280;15109;50.992;6.918;2022-08-19T15:19:29;100719.47;;;27.13;73.03
27705;BME280;15109;50.992;6.918;2022-08-19T15:22:51;100711.09;;;27.31;73.27
27705;BME280;15109;50.992;6.918;2022-08-19T15:26:12;100708.72;;;27.43;72.37
27705;BME280;15109;50.992;6.918;2022-08-19T15:29:33;100723.16;;;27.61;72.69
27705;BME280;15109;50.992;6.918;2022-08-19T15:32:58;100724.81;;;27.62;72.18
27705;BME280;15109;50.992;6.918;2022-08-19T15:36:19;100727.97;;;27.79;73.89
27705;BME280;15109;50.992;6.918;2022-08-19T15:39:41;100733.22;;;27.85;70.72
27705;BME280;15109;50.992;6.918;2022-08-19T15:43:02;100737.78;;;27.81;73.14
27705;BME280;15109;50.992;6.918;2022-08-19T15:46:26;100738.19;;;27.93;74.08
27705;BME280;15109;50.992;6.918;2022-08-19T15:49:47;100740.66;;;27.76;73.79
27705;BME280;15109;50.992;6.918;2022-08-19T15:53:09;100747.63;;;27.79;76.08
27705;BME280;15109;50.992;6.918;2022-08-19T15:56:31;100743.34;;;27.63;76.17
27705;BME280;15109;50.992;6.918;2022-08-19T16:00:10;100738.03;;;27.32;77.68
27705;BME280;15109;50.992;6.918;2022-08-19T16:03:51;100741.47;;;27.00;80.58
27705;BME280;15109;50.992;6.918;2022-08-19T16:07:31;100743.22;;;26.96;84.66
27705;BME280;15109;50.992;6.918;2022-08-19T16:10:53;100741.97;;;26.74;87.22
27705;BME280;15109;50.992;6.918;2022-08-19T16:14:16;100755.03;;;26.49;90.43
27705;BME280;15109;50.992;6.918;2022-08-19T16:17:38;100753.22;;;26.30;92.15
27705;BME280;15109;50.992;6.918;2022-08-19T16:20:59;100757.47;;;26.17;92.73
27705;BME280;15109;50.992;6.918;2022-08-19T16:24:23;100764.53;;;26.09;90.74
27705;BME280;15109;50.992;6.918;2022-08-19T16:27:44;100752.47;;;26.09;92.03
27705;BME280;15109;50.992;6.918;2022-08-19T16:31:05;100758.13;;;25.99;91.77
27705;BME280;15109;50.992;6.918;2022-08-19T16:34:26;100759.84;;;25.95;94.29
27705;BME280;15109;50.992;6.918;2022-08-19T16:37:47;100766.28;;;25.90;92.71
27705;BME280;15109;50.992;6.918;2022-08-19T16:41:09;100770.78;;;25.86;95.00
27705;BME280;15109;50.992;6.918;2022-08-19T16:44:31;100762.72;;;25.80;97.17
27705;BME280;15109;50.992;6.918;2022-08-19T16:47:52;100766.09;;;25.71;98.04
27705;BME280;15109;50.992;6.918;2022-08-19T16:51:16;100763.59;;;25.65;100.00
27705;BME280;15109;50.992;6.918;2022-08-19T16:54:38;100759.72;;;25.56;100.00
27705;BME280;15109;50.992;6.918;2022-08-19T16:57:59;100763.91;;;25.48;100.00
27705;BME280;15109;50.992;6.918;2022-08-19T17:01:25;100770.94;;;25.41;100.00
27705;BME280;15109;50.992;6.918;2022-08-19T17:04:50;100762.22;;;25.37;100.00
27705;BME280;15109;50.992;6.918;2022-08-19T17:08:12;100756.94;;;25.25;100.00
27705;BME280;15109;50.992;6.918;2022-08-19T17:11:36;100771.25;;;25.24;100.00
27705;BME280;15109;50.992;6.918;2022-08-19T17:14:58;100759.50;;;25.12;100.00
27705;BME280;15109;50.992;6.918;2022-08-19T17:18:26;100762.00;;;25.08;100.00
27705;BME280;15109;50.992;6.918;2022-08-19T17:21:47;100768.47;;;25.04;100.00
27705;BME280;15109;50.992;6.918;2022-08-19T17:25:11;100755.88;;;25.01;100.00
27705;BME280;15109;50.992;6.918;2022-08-19T17:28:35;100754.19;;;24.95;100.00
27705;BME280;15109;50.992;6.918;2022-08-19T17:31:58;100762.00;;;24.98;100.00
27705;BME280;15109;50.992;6.918;2022-08-19T17:35:19;100762.00;;;24.98;100.00